Welsh, Louisiana
Current Conditions -  °F | °C
As of 11:35 PM on Sunday 21 Dec 2014 (Local Time) from K3R7 Reporting Station
Moderate Fog Moderate Fog  
Wind Chill: 49°   Ceiling: 300
Heat Index: 49°   Visibility: 0.5mi
Dew Point: 49°   Wind: 0mph
Humidity: 100%   Direction: NA
Pressure: 29.94"   Gusts: NA
Location:  30.24°N, 92.82°W
Report Text: K3R7 220535Z AUTO 00000KT 1/2SM FG OVC003 10/10 A2994 RMK AO2 LTG DSNT S T00960096
Loading
Personal Weather Stations






























Interactive Weather Map New forecast layout! Learn more

10-Day Weather Forecast

Advertisements
Track Severe Weather on mobile